Time;durP1;ratioP1;P1;durP2;ratioP2;P2;SDS_P1;SDS_P2;PMS_P1;PMS_P2;Temp;Humidity;BMP_temperature;BMP_pressure;BME280_temperature;BME280_humidity;BME280_pressure;Samples;Min_cycle;Max_cycle;Signal;HPM_P1;HPM_P2
2023/12/18 00:01:44;;;;;;;;;;;;;;;;;;5115367;27;20360;-51
2023/12/18 00:04:10;;;;;;;;;;;;;;;;;;5115272;28;20367;-50
2023/12/18 00:06:36;;;;;;;;;;;;;;;;;;5115217;28;19924;-50
2023/12/18 00:09:03;;;;;;;;;;;;;;;;;;5114639;27;19924;-47
2023/12/18 00:11:29;;;;;;;;;;;;;;;;;;5114659;28;20287;-50
2023/12/18 00:13:55;;;;;;;;;;;;;;;;;;5114897;28;20192;-50
2023/12/18 00:16:21;;;;;;;;;;;;;;;;;;5114562;28;19997;-52
2023/12/18 00:18:47;;;;;;;;;;;;;;;;;;5114542;27;20356;-50
2023/12/18 00:21:15;;;;;;;;;;;;;;;;;;5114779;28;19923;-48
2023/12/18 00:23:41;;;;;;;;;;;;;;;;;;5114827;28;19923;-50
2023/12/18 00:26:07;;;;;;;;;;;;;;;;;;5114663;28;19924;-49
2023/12/18 00:28:33;;;;;;;;;;;;;;;;;;5114757;28;19985;-51
2023/12/18 00:30:59;;;;;;;;;;;;;;;;;;5114589;28;19930;-51
2023/12/18 00:33:26;;;;;;;;;;;;;;;;;;5114730;28;19969;-50
2023/12/18 00:35:52;;;;;;;;;;;;;;;;;;5114595;28;19945;-52
2023/12/18 00:38:18;;;;;;;;;;;;;;;;;;5114350;28;19950;-51
2023/12/18 00:40:44;;;;;;;;;;;;;;;;;;5114049;28;19927;-51
2023/12/18 00:43:11;;;;;;;;;;;;;;;;;;5114260;28;19924;-50
2023/12/18 00:45:37;;;;;;;;;;;;;;;;;;5114015;28;19923;-50
2023/12/18 00:48:04;;;;;;;;;;;;;;;;;;5114312;28;20374;-50
2023/12/18 00:50:30;;;;;;;;;;;;;;;;;;5114208;28;19935;-49
2023/12/18 00:52:56;;;;;;;;;;;;;;;;;;5114155;28;19927;-50
2023/12/18 00:55:23;;;;;;;;;;;;;;;;;;5113983;28;19980;-49
2023/12/18 00:57:49;;;;;;;;;;;;;;;;;;5113883;28;19931;-53
2023/12/18 01:00:19;;;;;;;;;;;;;;;;;;5114214;28;19924;-52
2023/12/18 01:02:46;;;;;;;;;;;;;;;;;;5114098;28;19930;-50
2023/12/18 01:05:14;;;;;;;;;;;;;;;;;;5113603;28;20019;-50
2023/12/18 01:07:40;;;;;;;;;;;;;;;;;;5113815;28;19924;-49
2023/12/18 01:10:06;;;;;;;;;;;;;;;;;;5113449;28;19974;-51
2023/12/18 01:12:32;;;;;;;;;;;;;;;;;;5113808;28;20347;-51
2023/12/18 01:14:58;;;;;;;;;;;;;;;;;;5113314;28;19930;-50
2023/12/18 01:17:25;;;;;;;;;;;;;;;;;;5113769;28;19935;-50
2023/12/18 01:19:58;;;;;;;;;;;;;;;;;;5113787;28;19924;-52
2023/12/18 01:22:24;;;;;;;;;;;;;;;;;;5113883;28;19924;-50
2023/12/18 01:24:50;;;;;;;;;;;;;;;;;;5113708;28;19962;-50
2023/12/18 01:27:16;;;;;;;;;;;;;;;;;;5113272;28;19985;-50
2023/12/18 01:29:44;;;;;;;;;;;;;;;;;;5112622;28;19936;-51
2023/12/18 01:32:10;;;;;;;;;;;;;;;;;;5113643;28;19924;-50
2023/12/18 01:34:37;;;;;;;;;;;;;;;;;;5113560;28;19931;-51
2023/12/18 01:37:03;;;;;;;;;;;;;;;;;;5113119;28;19959;-52
2023/12/18 01:39:30;;;;;;;;;;;;;;;;;;5113122;28;19924;-50
2023/12/18 01:41:56;;;;;;;;;;;;;;;;;;5113452;28;19928;-51
2023/12/18 01:44:22;;;;;;;;;;;;;;;;;;5113216;28;19924;-50
2023/12/18 01:46:48;;;;;;;;;;;;;;;;;;5113383;28;19924;-51
2023/12/18 01:49:14;;;;;;;;;;;;;;;;;;5113534;28;19961;-51
2023/12/18 01:51:40;;;;;;;;;;;;;;;;;;5113352;28;19923;-49
2023/12/18 01:54:07;;;;;;;;;;;;;;;;;;5113413;28;19927;-49
2023/12/18 01:56:33;;;;;;;;;;;;;;;;;;5113355;28;19950;-49
2023/12/18 01:58:59;;;;;;;;;;;;;;;;;;5112947;28;20004;-50
2023/12/18 02:01:25;;;;;;;;;;;;;;;;;;5113329;28;20343;-50
2023/12/18 02:03:51;;;;;;;;;;;;;;;;;;5113149;28;19931;-51
2023/12/18 02:06:18;;;;;;;;;;;;;;;;;;5113234;28;19928;-51
2023/12/18 02:08:44;;;;;;;;;;;;;;;;;;5112556;28;19924;-50
2023/12/18 02:11:10;;;;;;;;;;;;;;;;;;5112207;28;20360;-51
2023/12/18 02:13:36;;;;;;;;;;;;;;;;;;5112715;28;19996;-50
2023/12/18 02:16:02;;;;;;;;;;;;;;;;;;5112206;28;20059;-51
2023/12/18 02:18:28;;;;;;;;;;;;;;;;;;5112662;28;20351;-51
2023/12/18 02:20:55;;;;;;;;;;;;;;;;;;5112513;28;19971;-51
2023/12/18 02:23:21;;;;;;;;;;;;;;;;;;5112707;28;19928;-50
2023/12/18 02:25:48;;;;;;;;;;;;;;;;;;5113096;28;19935;-50
2023/12/18 02:28:14;;;;;;;;;;;;;;;;;;5112721;28;19924;-50
2023/12/18 02:30:40;;;;;;;;;;;;;;;;;;5112950;28;19959;-49
2023/12/18 02:33:06;;;;;;;;;;;;;;;;;;5112496;28;20044;-48
2023/12/18 02:35:33;;;;;;;;;;;;;;;;;;5112718;28;19924;-50
2023/12/18 02:37:59;;;;;;;;;;;;;;;;;;5112758;28;19924;-48
2023/12/18 02:40:25;;;;;;;;;;;;;;;;;;5113405;28;19966;-50
2023/12/18 02:42:51;;;;;;;;;;;;;;;;;;5116639;28;19923;-49
2023/12/18 02:45:17;;;;;;;;;;;;;;;;;;5116454;28;20340;-48
2023/12/18 02:47:43;;;;;;;;;;;;;;;;;;5116279;28;19934;-51
2023/12/18 02:50:10;;;;;;;;;;;;;;;;;;5116170;28;19930;-50
2023/12/18 02:52:36;;;;;;;;;;;;;;;;;;5116631;28;19924;-50
2023/12/18 02:55:02;;;;;;;;;;;;;;;;;;5116552;28;19954;-51
2023/12/18 02:57:28;;;;;;;;;;;;;;;;;;5116421;27;19950;-51
2023/12/18 02:59:55;;;;;;;;;;;;;;;;;;5115553;28;20303;-50
2023/12/18 03:02:21;;;;;;;;;;;;;;;;;;5116324;28;20428;-52
2023/12/18 03:04:47;;;;;;;;;;;;;;;;;;5115976;28;20018;-51
2023/12/18 03:07:13;;;;;;;;;;;;;;;;;;5116284;27;19924;-52
2023/12/18 03:09:39;;;;;;;;;;;;;;;;;;5116028;28;19969;-51
2023/12/18 03:12:05;;;;;;;;;;;;;;;;;;5116029;28;19928;-51
2023/12/18 03:14:31;;;;;;;;;;;;;;;;;;5115819;28;19927;-50
2023/12/18 03:16:58;;;;;;;;;;;;;;;;;;5115959;28;19924;-51
2023/12/18 03:19:24;;;;;;;;;;;;;;;;;;5116161;27;19996;-51
2023/12/18 03:21:50;;;;;;;;;;;;;;;;;;5116282;28;20169;-51
2023/12/18 03:24:16;;;;;;;;;;;;;;;;;;5115996;28;19955;-50
2023/12/18 03:26:42;;;;;;;;;;;;;;;;;;5116104;28;19932;-52
2023/12/18 03:29:09;;;;;;;;;;;;;;;;;;5115853;28;19928;-51
2023/12/18 03:31:35;;;;;;;;;;;;;;;;;;5115623;28;19924;-51
2023/12/18 03:34:01;;;;;;;;;;;;;;;;;;5115716;28;20287;-52
2023/12/18 03:36:27;;;;;;;;;;;;;;;;;;5115396;28;19967;-50
2023/12/18 03:38:53;;;;;;;;;;;;;;;;;;5114685;28;19932;-51
2023/12/18 03:41:20;;;;;;;;;;;;;;;;;;5115459;28;19969;-52
2023/12/18 03:43:46;;;;;;;;;;;;;;;;;;5115613;27;20264;-52
2023/12/18 03:46:12;;;;;;;;;;;;;;;;;;5115098;28;19976;-52
2023/12/18 03:48:38;;;;;;;;;;;;;;;;;;5115540;28;19997;-51
2023/12/18 03:51:05;;;;;;;;;;;;;;;;;;5114866;28;20325;-52
2023/12/18 03:53:31;;;;;;;;;;;;;;;;;;5114879;28;19924;-51
2023/12/18 03:55:57;;;;;;;;;;;;;;;;;;5115441;28;20318;-52
2023/12/18 03:58:23;;;;;;;;;;;;;;;;;;5109195;28;20459;-52
2023/12/18 04:00:50;;;;;;;;;;;;;;;;;;5114896;28;20344;-51
2023/12/18 04:03:16;;;;;;;;;;;;;;;;;;5114808;28;19930;-52
2023/12/18 04:05:42;;;;;;;;;;;;;;;;;;5114988;28;19978;-51
2023/12/18 04:08:08;;;;;;;;;;;;;;;;;;5115105;28;19924;-52
2023/12/18 04:10:34;;;;;;;;;;;;;;;;;;5114751;28;20429;-52
2023/12/18 04:13:01;;;;;;;;;;;;;;;;;;5115000;28;19964;-50
2023/12/18 04:15:27;;;;;;;;;;;;;;;;;;5114602;28;19977;-52
2023/12/18 04:17:55;;;;;;;;;;;;;;;;;;5114642;28;19947;-52
2023/12/18 04:20:21;;;;;;;;;;;;;;;;;;5114376;28;19959;-50
2023/12/18 04:22:47;;;;;;;;;;;;;;;;;;5114401;28;20321;-52
2023/12/18 04:25:13;;;;;;;;;;;;;;;;;;5113795;28;19988;-51
2023/12/18 04:27:39;;;;;;;;;;;;;;;;;;5114829;28;20360;-51
2023/12/18 04:30:06;;;;;;;;;;;;;;;;;;5114312;28;19924;-51
2023/12/18 04:32:32;;;;;;;;;;;;;;;;;;5114428;28;19934;-52
2023/12/18 04:34:58;;;;;;;;;;;;;;;;;;5114384;28;19931;-51
2023/12/18 04:37:24;;;;;;;;;;;;;;;;;;5114428;28;19924;-50
2023/12/18 04:39:51;;;;;;;;;;;;;;;;;;5114168;28;19923;-51
2023/12/18 04:42:17;;;;;;;;;;;;;;;;;;5114468;28;19923;-51
2023/12/18 04:44:43;;;;;;;;;;;;;;;;;;5114022;28;20397;-50
2023/12/18 04:47:09;;;;;;;;;;;;;;;;;;5114338;28;19927;-52
2023/12/18 04:49:35;;;;;;;;;;;;;;;;;;5114367;28;19949;-51
2023/12/18 04:52:02;;;;;;;;;;;;;;;;;;5114107;28;19928;-51
2023/12/18 04:54:28;;;;;;;;;;;;;;;;;;5114263;27;19934;-51
2023/12/18 04:56:54;;;;;;;;;;;;;;;;;;5114166;28;19927;-51
2023/12/18 04:59:20;;;;;;;;;;;;;;;;;;5114121;28;19969;-52
2023/12/18 05:01:47;;;;;;;;;;;;;;;;;;5113584;28;19968;-51
2023/12/18 05:04:13;;;;;;;;;;;;;;;;;;5111944;28;19988;-51
2023/12/18 05:06:40;;;;;;;;;;;;;;;;;;5113845;28;19927;-52
2023/12/18 05:09:07;;;;;;;;;;;;;;;;;;5113606;28;19935;-52
2023/12/18 05:11:33;;;;;;;;;;;;;;;;;;5113682;28;19924;-51
2023/12/18 05:13:59;;;;;;;;;;;;;;;;;;5113679;27;20325;-51
2023/12/18 05:16:25;;;;;;;;;;;;;;;;;;5113592;28;20359;-51
2023/12/18 05:18:53;;;;;;;;;;;;;;;;;;5113702;28;20317;-51
2023/12/18 05:21:19;;;;;;;;;;;;;;;;;;5113891;28;19924;-51
2023/12/18 05:23:47;;;;;;;;;;;;;;;;;;5113951;28;20040;-51
2023/12/18 05:26:13;;;;;;;;;;;;;;;;;;5113269;28;20019;-51
2023/12/18 05:28:39;;;;;;;;;;;;;;;;;;5113626;28;19924;-52
2023/12/18 05:31:05;;;;;;;;;;;;;;;;;;5113300;28;19924;-51
2023/12/18 05:33:32;;;;;;;;;;;;;;;;;;5113543;28;20274;-50
2023/12/18 05:35:58;;;;;;;;;;;;;;;;;;5113552;28;19927;-51
2023/12/18 05:38:24;;;;;;;;;;;;;;;;;;5113397;28;19924;-47
2023/12/18 05:40:50;;;;;;;;;;;;;;;;;;5113108;28;19924;-47
2023/12/18 05:43:16;;;;;;;;;;;;;;;;;;5113567;28;19924;-46
2023/12/18 05:45:42;;;;;;;;;;;;;;;;;;5113105;28;20364;-47
2023/12/18 05:48:09;;;;;;;;;;;;;;;;;;5113404;28;20341;-48
2023/12/18 05:50:37;;;;;;;;;;;;;;;;;;5112181;28;21282;-47
2023/12/18 05:53:03;;;;;;;;;;;;;;;;;;5113377;28;20329;-46
2023/12/18 05:55:29;;;;;;;;;;;;;;;;;;5113410;28;20352;-46
2023/12/18 05:57:55;;;;;;;;;;;;;;;;;;5113422;28;20433;-48
2023/12/18 06:00:21;;;;;;;;;;;;;;;;;;5113255;28;20408;-47
2023/12/18 06:02:47;;;;;;;;;;;;;;;;;;5112998;28;20319;-50
2023/12/18 06:05:14;;;;;;;;;;;;;;;;;;5112796;28;20351;-48
2023/12/18 06:07:41;;;;;;;;;;;;;;;;;;5111718;28;20341;-50
2023/12/18 06:10:08;;;;;;;;;;;;;;;;;;5112197;28;19948;-50
2023/12/18 06:12:34;;;;;;;;;;;;;;;;;;5111269;28;19924;-50
2023/12/18 06:15:00;;;;;;;;;;;;;;;;;;5112938;28;19924;-46
2023/12/18 06:17:27;;;;;;;;;;;;;;;;;;5117379;28;19924;-48
2023/12/18 06:19:53;;;;;;;;;;;;;;;;;;5116950;28;19924;-47
2023/12/18 06:22:19;;;;;;;;;;;;;;;;;;5117296;28;19928;-47
2023/12/18 06:24:45;;;;;;;;;;;;;;;;;;5116797;28;19984;-50
2023/12/18 06:27:11;;;;;;;;;;;;;;;;;;5115769;28;19973;-51
2023/12/18 06:29:37;;;;;;;;;;;;;;;;;;5114488;28;19923;-50
2023/12/18 06:32:04;;;;;;;;;;;;;;;;;;5113417;28;19924;-53
2023/12/18 06:34:30;;;;;;;;;;;;;;;;;;5111860;28;20048;-50
2023/12/18 06:36:56;;;;;;;;;;;;;;;;;;5116183;28;19955;-51
2023/12/18 06:39:22;;;;;;;;;;;;;;;;;;5109829;28;19931;-51
2023/12/18 06:41:48;;;;;;;;;;;;;;;;;;5111261;28;19998;-51
2023/12/18 06:44:15;;;;;;;;;;;;;;;;;;5115081;28;20341;-51
2023/12/18 06:46:41;;;;;;;;;;;;;;;;;;5110620;28;20345;-50
2023/12/18 06:49:07;;;;;;;;;;;;;;;;;;5104622;28;19950;-50
2023/12/18 06:51:33;;;;;;;;;;;;;;;;;;5100668;28;19959;-51
2023/12/18 06:53:59;;;;;;;;;;;;;;;;;;5110622;28;19984;-51
2023/12/18 06:56:25;;;;;;;;;;;;;;;;;;5099389;28;20124;-52
2023/12/18 06:58:51;;;;;;;;;;;;;;;;;;5114220;28;19973;-51
2023/12/18 07:01:18;;;;;;;;;;;;;;;;;;5111617;28;20415;-57
2023/12/18 07:03:44;;;;;;;;;;;;;;;;;;5112649;28;19927;-52
2023/12/18 07:06:10;;;;;;;;;;;;;;;;;;5107216;28;20537;-51
2023/12/18 07:08:37;;;;;;;;;;;;;;;;;;5111301;28;19927;-50
2023/12/18 07:11:05;;;;;;;;;;;;;;;;;;5110179;28;19935;-50
2023/12/18 07:13:31;;;;;;;;;;;;;;;;;;5105512;28;20044;-50
2023/12/18 07:15:57;;;;;;;;;;;;;;;;;;5106242;28;20429;-49
2023/12/18 07:18:23;;;;;;;;;;;;;;;;;;5115256;27;19973;-50
2023/12/18 07:20:49;;;;;;;;;;;;;;;;;;5100469;28;20337;-49
2023/12/18 07:23:16;;;;;;;;;;;;;;;;;;5113428;28;19935;-52
2023/12/18 07:25:42;;;;;;;;;;;;;;;;;;5105655;28;19968;-51
2023/12/18 07:28:09;;;;;;;;;;;;;;;;;;5101008;28;19928;-53
2023/12/18 07:30:36;;;;;;;;;;;;;;;;;;5101467;28;19924;-52
2023/12/18 07:33:04;;;;;;;;;;;;;;;;;;5106962;27;19924;-52
2023/12/18 07:35:30;;;;;;;;;;;;;;;;;;5106893;28;19938;-53
2023/12/18 07:37:56;;;;;;;;;;;;;;;;;;5110544;28;20421;-51
2023/12/18 07:40:23;;;;;;;;;;;;;;;;;;5101987;28;19980;-53
2023/12/18 07:42:49;;;;;;;;;;;;;;;;;;5106043;28;19969;-52
2023/12/18 07:45:15;;;;;;;;;;;;;;;;;;5109678;28;19931;-50
2023/12/18 07:47:42;;;;;;;;;;;;;;;;;;5103224;28;19959;-53
2023/12/18 07:50:08;;;;;;;;;;;;;;;;;;5101806;28;19955;-51
2023/12/18 07:52:34;;;;;;;;;;;;;;;;;;5104746;28;19939;-52
2023/12/18 07:55:00;;;;;;;;;;;;;;;;;;5102975;28;20283;-52
2023/12/18 07:57:26;;;;;;;;;;;;;;;;;;5099664;27;19936;-52
2023/12/18 07:59:54;;;;;;;;;;;;;;;;;;5086673;27;19993;-51
2023/12/18 08:02:20;;;;;;;;;;;;;;;;;;5083221;27;20030;-53
2023/12/18 08:04:46;;;;;;;;;;;;;;;;;;5093908;27;19967;-52
2023/12/18 08:07:12;;;;;;;;;;;;;;;;;;5088780;27;20041;-52
2023/12/18 08:09:40;;;;;;;;;;;;;;;;;;5096377;28;20468;-50
2023/12/18 08:12:07;;;;;;;;;;;;;;;;;;5088827;27;20062;-52
2023/12/18 08:14:33;;;;;;;;;;;;;;;;;;5086436;27;19942;-59
2023/12/18 08:16:59;;;;;;;;;;;;;;;;;;5084064;27;19935;-51
2023/12/18 08:19:26;;;;;;;;;;;;;;;;;;5087088;27;19963;-51
2023/12/18 08:21:52;;;;;;;;;;;;;;;;;;5094085;28;19954;-51
2023/12/18 08:24:20;;;;;;;;;;;;;;;;;;5093721;28;19925;-52
2023/12/18 08:26:46;;;;;;;;;;;;;;;;;;5099710;28;19924;-53
2023/12/18 08:29:13;;;;;;;;;;;;;;;;;;5099573;27;20031;-51
2023/12/18 08:31:39;;;;;;;;;;;;;;;;;;5096449;27;19927;-52
2023/12/18 08:34:05;;;;;;;;;;;;;;;;;;5093813;28;19924;-50
2023/12/18 08:36:32;;;;;;;;;;;;;;;;;;5097810;28;19928;-53
2023/12/18 08:38:58;;;;;;;;;;;;;;;;;;5096844;28;19932;-52
2023/12/18 08:41:24;;;;;;;;;;;;;;;;;;5096616;28;19975;-52
2023/12/18 08:43:50;;;;;;;;;;;;;;;;;;5096414;28;19973;-48
2023/12/18 08:46:23;;;;;;;;;;;;;;;;;;5096979;28;20032;-53
2023/12/18 08:48:49;;;;;;;;;;;;;;;;;;5097003;28;19973;-52
2023/12/18 08:51:16;;;;;;;;;;;;;;;;;;5098418;27;19932;-52
2023/12/18 08:53:43;;;;;;;;;;;;;;;;;;5099228;28;20387;-49
2023/12/18 08:56:10;;;;;;;;;;;;;;;;;;5096211;28;19993;-52
2023/12/18 08:58:39;;;;;;;;;;;;;;;;;;5093039;28;19992;-52
2023/12/18 09:01:05;;;;;;;;;;;;;;;;;;5096719;27;20088;-51
2023/12/18 09:03:35;;;;;;;;;;;;;;;;;;5091359;28;19943;-49
2023/12/18 09:06:02;;;;;;;;;;;;;;;;;;5092340;27;19934;-52
2023/12/18 09:08:28;;;;;;;;;;;;;;;;;;5095347;28;19936;-52
2023/12/18 09:10:54;;;;;;;;;;;;;;;;;;5099287;27;19977;-50
2023/12/18 09:13:20;;;;;;;;;;;;;;;;;;5099746;27;19974;-51
2023/12/18 09:15:46;;;;;;;;;;;;;;;;;;5091736;28;19957;-52
2023/12/18 09:18:13;;;;;;;;;;;;;;;;;;5100811;27;19938;-52
2023/12/18 09:20:40;;;;;;;;;;;;;;;;;;5101935;27;19946;-50
2023/12/18 09:23:08;;;;;;;;;;;;;;;;;;5097819;28;19977;-53
2023/12/18 09:25:34;;;;;;;;;;;;;;;;;;5098507;28;19923;-52
2023/12/18 09:28:01;;;;;;;;;;;;;;;;;;5095510;28;20367;-53
2023/12/18 09:30:27;;;;;;;;;;;;;;;;;;5097886;28;19997;-53
2023/12/18 09:32:53;;;;;;;;;;;;;;;;;;5093525;28;20018;-52
2023/12/18 09:35:19;;;;;;;;;;;;;;;;;;5092097;28;19932;-51
2023/12/18 09:37:45;;;;;;;;;;;;;;;;;;5100892;28;20394;-51
2023/12/18 09:40:12;;;;;;;;;;;;;;;;;;5097992;28;19932;-52
2023/12/18 09:42:38;;;;;;;;;;;;;;;;;;5096461;28;20610;-52
2023/12/18 09:45:05;;;;;;;;;;;;;;;;;;5095576;28;19955;-50
2023/12/18 09:47:31;;;;;;;;;;;;;;;;;;5097513;28;19932;-50
2023/12/18 09:49:58;;;;;;;;;;;;;;;;;;5094853;28;20041;-53
2023/12/18 09:52:24;;;;;;;;;;;;;;;;;;5094046;28;19969;-52
2023/12/18 09:54:50;;;;;;;;;;;;;;;;;;5094672;28;19977;-52
2023/12/18 09:57:16;;;;;;;;;;;;;;;;;;5098786;28;20403;-49
2023/12/18 09:59:42;;;;;;;;;;;;;;;;;;5102436;28;20341;-50
2023/12/18 10:02:08;;;;;;;;;;;;;;;;;;5103201;28;19923;-51
2023/12/18 10:04:35;;;;;;;;;;;;;;;;;;5098804;28;19985;-50
2023/12/18 10:07:01;;;;;;;;;;;;;;;;;;5097559;28;19959;-52
2023/12/18 10:09:28;;;;;;;;;;;;;;;;;;5101619;28;20020;-58
2023/12/18 10:11:54;;;;;;;;;;;;;;;;;;5100954;28;19923;-53
2023/12/18 10:14:20;;;;;;;;;;;;;;;;;;5103758;28;19984;-49
2023/12/18 10:16:47;;;;;;;;;;;;;;;;;;5105442;28;21026;-52
2023/12/18 10:19:13;;;;;;;;;;;;;;;;;;5104030;28;20019;-51
2023/12/18 10:21:39;;;;;;;;;;;;;;;;;;5101420;28;20365;-51
2023/12/18 10:24:05;;;;;;;;;;;;;;;;;;5104287;28;19932;-49
2023/12/18 10:26:31;;;;;;;;;;;;;;;;;;5101254;28;20000;-51
2023/12/18 10:28:58;;;;;;;;;;;;;;;;;;5097626;28;20359;-49
2023/12/18 10:31:24;;;;;;;;;;;;;;;;;;5099018;28;19977;-51
2023/12/18 10:33:50;;;;;;;;;;;;;;;;;;5099836;28;19927;-50
2023/12/18 10:36:16;;;;;;;;;;;;;;;;;;5095889;28;19977;-50
2023/12/18 10:38:43;;;;;;;;;;;;;;;;;;5094810;28;20278;-50
2023/12/18 10:41:09;;;;;;;;;;;;;;;;;;5095833;28;20017;-48
2023/12/18 10:43:35;;;;;;;;;;;;;;;;;;5094030;28;19955;-47
2023/12/18 10:46:02;;;;;;;;;;;;;;;;;;5097960;28;19930;-48
2023/12/18 10:48:28;;;;;;;;;;;;;;;;;;5094286;28;20179;-50
2023/12/18 10:50:55;;;;;;;;;;;;;;;;;;5097893;28;19931;-51
2023/12/18 10:53:21;;;;;;;;;;;;;;;;;;5098400;28;20383;-50
2023/12/18 10:55:47;;;;;;;;;;;;;;;;;;5098319;28;20026;-49
2023/12/18 10:58:13;;;;;;;;;;;;;;;;;;5097588;28;20363;-49
2023/12/18 11:00:39;;;;;;;;;;;;;;;;;;5097026;28;19991;-51
2023/12/18 11:03:05;;;;;;;;;;;;;;;;;;5091495;28;19927;-50
2023/12/18 11:05:31;;;;;;;;;;;;;;;;;;5099650;28;19923;-50
2023/12/18 11:07:58;;;;;;;;;;;;;;;;;;5054430;28;20002;-50
2023/12/18 11:10:24;;;;;;;;;;;;;;;;;;5051449;28;19965;-51
2023/12/18 11:12:50;;;;;;;;;;;;;;;;;;5051694;28;20716;-50
2023/12/18 11:15:18;;;;;;;;;;;;;;;;;;5046383;28;20133;-48
2023/12/18 11:17:44;;;;;;;;;;;;;;;;;;5041170;28;20320;-52
2023/12/18 11:20:11;;;;;;;;;;;;;;;;;;5043604;28;20023;-53
2023/12/18 11:22:37;;;;;;;;;;;;;;;;;;5044977;28;19972;-51
2023/12/18 11:25:04;;;;;;;;;;;;;;;;;;5044966;28;20342;-50
2023/12/18 11:27:30;;;;;;;;;;;;;;;;;;5086483;27;20164;-51
2023/12/18 11:29:56;;;;;;;;;;;;;;;;;;5086489;27;19943;-47
2023/12/18 11:32:22;;;;;;;;;;;;;;;;;;5087768;27;20316;-50
2023/12/18 11:34:48;;;;;;;;;;;;;;;;;;5083320;27;20030;-52
2023/12/18 11:37:15;;;;;;;;;;;;;;;;;;5088665;27;19939;-52
2023/12/18 11:39:41;;;;;;;;;;;;;;;;;;5084678;27;20052;-51
2023/12/18 11:42:07;;;;;;;;;;;;;;;;;;5082618;27;19931;-49
2023/12/18 11:44:35;;;;;;;;;;;;;;;;;;5084754;27;19939;-46
2023/12/18 11:47:01;;;;;;;;;;;;;;;;;;5100809;28;20323;-49
2023/12/18 11:49:27;;;;;;;;;;;;;;;;;;5094243;28;20103;-50
2023/12/18 11:51:53;;;;;;;;;;;;;;;;;;5097849;28;19936;-50
2023/12/18 11:54:20;;;;;;;;;;;;;;;;;;5102633;28;19932;-49
2023/12/18 11:56:46;;;;;;;;;;;;;;;;;;5098205;28;19939;-52
2023/12/18 11:59:14;;;;;;;;;;;;;;;;;;5102122;27;19954;-49
2023/12/18 12:01:40;;;;;;;;;;;;;;;;;;5100946;28;19969;-52
2023/12/18 12:04:06;;;;;;;;;;;;;;;;;;5101160;28;19939;-51
2023/12/18 12:06:33;;;;;;;;;;;;;;;;;;5097096;28;20299;-52
2023/12/18 12:08:59;;;;;;;;;;;;;;;;;;5099767;28;19930;-51
2023/12/18 12:11:26;;;;;;;;;;;;;;;;;;5100176;28;19930;-49
2023/12/18 12:13:52;;;;;;;;;;;;;;;;;;5097939;28;19932;-50
2023/12/18 12:16:18;;;;;;;;;;;;;;;;;;5099671;28;20336;-50
2023/12/18 12:18:45;;;;;;;;;;;;;;;;;;5094515;28;19924;-51
2023/12/18 12:21:11;;;;;;;;;;;;;;;;;;5099626;28;20017;-50
2023/12/18 12:23:37;;;;;;;;;;;;;;;;;;5102146;28;19932;-47
2023/12/18 12:26:04;;;;;;;;;;;;;;;;;;5101523;28;20310;-49
2023/12/18 12:28:30;;;;;;;;;;;;;;;;;;5100530;28;20443;-47
2023/12/18 12:30:56;;;;;;;;;;;;;;;;;;5097223;28;20586;-49
2023/12/18 12:33:23;;;;;;;;;;;;;;;;;;5097325;27;19931;-47
2023/12/18 12:35:49;;;;;;;;;;;;;;;;;;5104620;27;20173;-52
2023/12/18 12:38:16;;;;;;;;;;;;;;;;;;5101050;28;20288;-48
2023/12/18 12:40:42;;;;;;;;;;;;;;;;;;5102374;28;20263;-50
2023/12/18 12:43:10;;;;;;;;;;;;;;;;;;5100719;28;19931;-48
2023/12/18 12:45:36;;;;;;;;;;;;;;;;;;5103816;28;20275;-50
2023/12/18 12:48:02;;;;;;;;;;;;;;;;;;5106194;28;19996;-51
2023/12/18 12:50:29;;;;;;;;;;;;;;;;;;5099760;27;19928;-51
2023/12/18 12:52:55;;;;;;;;;;;;;;;;;;5099070;27;19939;-51
2023/12/18 12:55:21;;;;;;;;;;;;;;;;;;5099193;28;20001;-52
2023/12/18 12:57:47;;;;;;;;;;;;;;;;;;5099530;28;19927;-51
2023/12/18 13:00:13;;;;;;;;;;;;;;;;;;5099825;28;19931;-47
2023/12/18 13:02:40;;;;;;;;;;;;;;;;;;5103164;28;20024;-51
2023/12/18 13:05:08;;;;;;;;;;;;;;;;;;5098797;28;20227;-51
2023/12/18 13:07:35;;;;;;;;;;;;;;;;;;5103119;27;19924;-50
2023/12/18 13:10:03;;;;;;;;;;;;;;;;;;5038456;28;20053;-51
2023/12/18 13:12:29;;;;;;;;;;;;;;;;;;5036617;28;19940;-51
2023/12/18 13:14:55;;;;;;;;;;;;;;;;;;5039018;28;19979;-52
2023/12/18 13:17:22;;;;;;;;;;;;;;;;;;5037635;28;20030;-51
2023/12/18 13:19:48;;;;;;;;;;;;;;;;;;5039317;28;20016;-51
2023/12/18 13:22:14;;;;;;;;;;;;;;;;;;5033071;28;19933;-51
2023/12/18 13:24:40;;;;;;;;;;;;;;;;;;5030094;28;19936;-46
2023/12/18 13:27:06;;;;;;;;;;;;;;;;;;5034649;28;20407;-48
2023/12/18 13:29:33;;;;;;;;;;;;;;;;;;5096282;27;19972;-53
2023/12/18 13:32:00;;;;;;;;;;;;;;;;;;5098752;28;19924;-50
2023/12/18 13:34:26;;;;;;;;;;;;;;;;;;5098975;28;20005;-48
2023/12/18 13:36:52;;;;;;;;;;;;;;;;;;5098417;28;19932;-51
2023/12/18 13:39:18;;;;;;;;;;;;;;;;;;5089459;28;19945;-50
2023/12/18 13:41:47;;;;;;;;;;;;;;;;;;5098171;28;19924;-49
2023/12/18 13:44:13;;;;;;;;;;;;;;;;;;5093882;28;19977;-52
2023/12/18 13:46:39;;;;;;;;;;;;;;;;;;5093165;28;19959;-48
2023/12/18 13:49:05;;;;;;;;;;;;;;;;;;5030457;28;19925;-51
2023/12/18 13:51:32;;;;;;;;;;;;;;;;;;5036000;28;19935;-52
2023/12/18 13:53:59;;;;;;;;;;;;;;;;;;5033110;28;20019;-52
2023/12/18 13:56:26;;;;;;;;;;;;;;;;;;4975509;28;19935;-50
2023/12/18 13:58:52;;;;;;;;;;;;;;;;;;4975886;28;19925;-50
2023/12/18 14:01:19;;;;;;;;;;;;;;;;;;4978349;28;19934;-50
2023/12/18 14:03:45;;;;;;;;;;;;;;;;;;4976071;28;19925;-49
2023/12/18 14:06:12;;;;;;;;;;;;;;;;;;4981583;28;19933;-49
2023/12/18 14:08:40;;;;;;;;;;;;;;;;;;5053506;28;19931;-50
2023/12/18 14:11:06;;;;;;;;;;;;;;;;;;5055154;28;19932;-50
2023/12/18 14:13:32;;;;;;;;;;;;;;;;;;5055245;28;20483;-49
2023/12/18 14:15:58;;;;;;;;;;;;;;;;;;5098490;28;20098;-50
2023/12/18 14:18:24;;;;;;;;;;;;;;;;;;5101982;28;19927;-48
2023/12/18 14:20:51;;;;;;;;;;;;;;;;;;5101593;28;19977;-51
2023/12/18 14:23:17;;;;;;;;;;;;;;;;;;5095579;28;20001;-47
2023/12/18 14:25:43;;;;;;;;;;;;;;;;;;5097168;28;19950;-52
2023/12/18 14:28:09;;;;;;;;;;;;;;;;;;5099551;28;19955;-52
2023/12/18 14:30:36;;;;;;;;;;;;;;;;;;5100766;28;19923;-50
2023/12/18 14:33:02;;;;;;;;;;;;;;;;;;5100578;28;19928;-50
2023/12/18 14:35:28;;;;;;;;;;;;;;;;;;5094223;28;19932;-50
2023/12/18 14:37:55;;;;;;;;;;;;;;;;;;5103350;28;19923;-51
2023/12/18 14:40:22;;;;;;;;;;;;;;;;;;5101419;28;19958;-48
2023/12/18 14:42:48;;;;;;;;;;;;;;;;;;5097612;28;19939;-49
2023/12/18 14:45:14;;;;;;;;;;;;;;;;;;5099573;28;20022;-47
2023/12/18 14:47:41;;;;;;;;;;;;;;;;;;5101813;28;19931;-50
2023/12/18 14:50:07;;;;;;;;;;;;;;;;;;5105636;28;19924;-50
2023/12/18 14:52:33;;;;;;;;;;;;;;;;;;5103959;28;19950;-49
2023/12/18 14:54:59;;;;;;;;;;;;;;;;;;5105259;27;19936;-48
2023/12/18 14:57:26;;;;;;;;;;;;;;;;;;5105338;28;19930;-49
2023/12/18 14:59:52;;;;;;;;;;;;;;;;;;5105713;28;19924;-50
2023/12/18 15:02:18;;;;;;;;;;;;;;;;;;5102291;28;19924;-48
2023/12/18 15:04:45;;;;;;;;;;;;;;;;;;5104989;28;19927;-49
2023/12/18 15:07:11;;;;;;;;;;;;;;;;;;5105236;28;20367;-45
2023/12/18 15:09:37;;;;;;;;;;;;;;;;;;5107206;28;19959;-51
2023/12/18 15:12:04;;;;;;;;;;;;;;;;;;5106989;28;20380;-51
2023/12/18 15:14:30;;;;;;;;;;;;;;;;;;5103098;28;19982;-46
2023/12/18 15:17:03;;;;;;;;;;;;;;;;;;5106810;28;20410;-48
2023/12/18 15:19:29;;;;;;;;;;;;;;;;;;5104469;28;19924;-48
2023/12/18 15:21:55;;;;;;;;;;;;;;;;;;5103619;28;19984;-47
2023/12/18 15:24:22;;;;;;;;;;;;;;;;;;5101306;28;20033;-49
2023/12/18 15:26:48;;;;;;;;;;;;;;;;;;5100205;28;19923;-49
2023/12/18 15:29:14;;;;;;;;;;;;;;;;;;5103312;28;20020;-48
2023/12/18 15:31:41;;;;;;;;;;;;;;;;;;5105256;28;19931;-47
2023/12/18 15:34:08;;;;;;;;;;;;;;;;;;5104968;28;19924;-49
2023/12/18 15:36:34;;;;;;;;;;;;;;;;;;5103432;28;20139;-47
2023/12/18 15:39:01;;;;;;;;;;;;;;;;;;5102410;28;19935;-51
2023/12/18 15:41:29;;;;;;;;;;;;;;;;;;5102792;27;19924;-49
2023/12/18 15:43:55;;;;;;;;;;;;;;;;;;5104706;28;20392;-50
2023/12/18 15:46:21;;;;;;;;;;;;;;;;;;5098967;28;19976;-49
2023/12/18 15:48:47;;;;;;;;;;;;;;;;;;5104165;28;19924;-49
2023/12/18 15:51:14;;;;;;;;;;;;;;;;;;5107493;27;19924;-50
2023/12/18 15:53:44;;;;;;;;;;;;;;;;;;5102310;28;20385;-50
2023/12/18 15:56:11;;;;;;;;;;;;;;;;;;5106917;28;19927;-50
2023/12/18 15:58:37;;;;;;;;;;;;;;;;;;5108310;28;19931;-51
2023/12/18 16:01:03;;;;;;;;;;;;;;;;;;5107917;28;19977;-49
2023/12/18 16:03:29;;;;;;;;;;;;;;;;;;5106141;28;20469;-48
2023/12/18 16:05:56;;;;;;;;;;;;;;;;;;5107509;28;19923;-50
2023/12/18 16:08:22;;;;;;;;;;;;;;;;;;5108146;28;19924;-50
2023/12/18 16:10:50;;;;;;;;;;;;;;;;;;5108807;28;19923;-49
2023/12/18 16:13:16;;;;;;;;;;;;;;;;;;5108880;28;19953;-49
2023/12/18 16:15:42;;;;;;;;;;;;;;;;;;5107400;28;19976;-48
2023/12/18 16:18:08;;;;;;;;;;;;;;;;;;5108358;28;20505;-49
2023/12/18 16:20:35;;;;;;;;;;;;;;;;;;5108866;28;19945;-51
2023/12/18 16:23:01;;;;;;;;;;;;;;;;;;5108738;28;19980;-49
2023/12/18 16:25:27;;;;;;;;;;;;;;;;;;5107660;28;20161;-51
2023/12/18 16:27:53;;;;;;;;;;;;;;;;;;5108312;28;19976;-51
2023/12/18 16:30:20;;;;;;;;;;;;;;;;;;5107136;28;19939;-51
2023/12/18 16:32:46;;;;;;;;;;;;;;;;;;5106799;28;19923;-50
2023/12/18 16:35:12;;;;;;;;;;;;;;;;;;5106223;28;19927;-51
2023/12/18 16:37:39;;;;;;;;;;;;;;;;;;5107591;27;19923;-48
2023/12/18 16:40:05;;;;;;;;;;;;;;;;;;5107347;28;19924;-49